createdAt,value
2019-01-25T00:01:46.888Z,-0.50
2019-01-25T00:04:20.327Z,-0.40
2019-01-25T00:07:00.073Z,-0.30
2019-01-25T00:09:36.151Z,-0.30
2019-01-25T00:12:16.251Z,-0.20
2019-01-25T00:14:58.959Z,-0.20
2019-01-25T00:17:42.733Z,-0.20
2019-01-25T00:20:16.733Z,-0.30
2019-01-25T00:22:49.114Z,-0.40
2019-01-25T00:25:24.206Z,-0.40
2019-01-25T00:28:04.592Z,-0.40
2019-01-25T00:30:50.346Z,-0.50
2019-01-25T00:33:20.790Z,-0.50
2019-01-25T00:35:51.394Z,-0.60
2019-01-25T00:38:22.622Z,-0.60
2019-01-25T00:40:52.713Z,-0.50
2019-01-25T00:43:23.255Z,-0.50
2019-01-25T00:45:53.535Z,-0.60
2019-01-25T00:48:23.869Z,-0.70
2019-01-25T00:50:54.383Z,-0.80
2019-01-25T00:53:25.352Z,-0.80
2019-01-25T00:55:59.950Z,-0.70
2019-01-25T00:58:33.611Z,-0.60
2019-01-25T01:01:25.114Z,-0.60
2019-01-25T01:03:58.610Z,-0.40
2019-01-25T01:06:29.852Z,-0.40
2019-01-25T01:09:02.540Z,-0.40
2019-01-25T01:11:37.448Z,-0.40
2019-01-25T01:14:11.117Z,-0.40
2019-01-25T01:16:42.121Z,-0.30
2019-01-25T01:19:12.544Z,-0.40
2019-01-25T01:22:03.509Z,-0.40
2019-01-25T01:24:33.937Z,-0.30
2019-01-25T01:27:04.566Z,-0.30
2019-01-25T01:29:34.847Z,-0.30
2019-01-25T01:32:05.409Z,-0.30
2019-01-25T01:34:36.286Z,-0.20
2019-01-25T01:37:09.672Z,-0.30
2019-01-25T01:39:40.560Z,-0.20
2019-01-25T01:42:11.145Z,-0.20
2019-01-25T01:44:41.432Z,-0.10
2019-01-25T01:47:11.444Z,-0.10
2019-01-25T01:49:41.804Z,-0.20
2019-01-25T01:52:12.051Z,-0.40
2019-01-25T01:54:42.044Z,-0.60
2019-01-25T01:57:12.772Z,-0.60
2019-01-25T01:59:43.040Z,-0.50
2019-01-25T02:02:13.387Z,-0.40
2019-01-25T02:04:43.630Z,-0.40
2019-01-25T02:07:13.735Z,-0.30
2019-01-25T02:09:43.802Z,-0.40
2019-01-25T02:12:14.143Z,-0.60
2019-01-25T02:14:47.128Z,-0.60
2019-01-25T02:17:17.366Z,-0.50
2019-01-25T02:19:48.627Z,-0.40
2019-01-25T02:22:19.311Z,-0.40
2019-01-25T02:24:51.927Z,-0.40
2019-01-25T02:27:23.317Z,-0.30
2019-01-25T02:30:17.249Z,-0.20
2019-01-25T02:33:20.924Z,-0.30
2019-01-25T02:35:55.281Z,-0.40
2019-01-25T02:38:42.761Z,-0.40
2019-01-25T02:41:13.053Z,-0.40
2019-01-25T02:43:51.395Z,-0.50
2019-01-25T02:46:21.711Z,-0.50
2019-01-25T02:48:52.150Z,-0.60
2019-01-25T02:51:25.679Z,-0.50
2019-01-25T02:53:56.607Z,-0.30
2019-01-25T02:56:27.380Z,-0.30
2019-01-25T02:59:00.348Z,-0.40
2019-01-25T03:01:32.563Z,-0.40
2019-01-25T03:04:02.923Z,-0.40
2019-01-25T03:06:36.058Z,-0.40
2019-01-25T03:09:09.994Z,-0.30
2019-01-25T03:11:40.507Z,-0.30
2019-01-25T03:14:10.717Z,-0.50
2019-01-25T03:16:41.042Z,-0.50
2019-01-25T03:19:11.298Z,-0.40
2019-01-25T03:21:41.674Z,-0.30
2019-01-25T03:24:12.192Z,-0.30
2019-01-25T03:26:42.731Z,-0.40
2019-01-25T03:29:13.340Z,-0.40
2019-01-25T03:31:43.837Z,-0.30
2019-01-25T03:34:14.002Z,-0.30
2019-01-25T03:36:44.743Z,-0.30
2019-01-25T03:39:15.957Z,-0.30
2019-01-25T03:41:46.850Z,-0.20
2019-01-25T03:44:18.541Z,-0.20
2019-01-25T03:46:48.585Z,-0.20
2019-01-25T03:49:19.997Z,-0.30
2019-01-25T03:51:50.327Z,-0.50
2019-01-25T03:54:20.466Z,-0.50
2019-01-25T03:56:52.924Z,-0.50
2019-01-25T03:59:23.738Z,-0.30
2019-01-25T04:01:54.091Z,-0.20
2019-01-25T04:04:26.959Z,-0.20
2019-01-25T04:06:57.555Z,-0.10
2019-01-25T04:09:27.832Z,0.00
2019-01-25T04:11:58.069Z,0.00
2019-01-25T04:14:29.650Z,-0.10
2019-01-25T04:17:03.276Z,-0.20
2019-01-25T04:19:33.405Z,-0.10
2019-01-25T04:22:04.092Z,-0.20
2019-01-25T04:24:34.207Z,-0.30
2019-01-25T04:27:04.355Z,-0.30
2019-01-25T04:29:34.683Z,-0.20
2019-01-25T04:32:04.938Z,-0.30
2019-01-25T04:34:35.202Z,-0.30
2019-01-25T04:37:06.514Z,-0.40
2019-01-25T04:39:36.590Z,-0.40
2019-01-25T04:42:07.377Z,-0.40
2019-01-25T04:44:37.991Z,-0.40
2019-01-25T04:47:12.327Z,-0.30
2019-01-25T04:49:42.459Z,-0.20
2019-01-25T04:52:16.147Z,-0.30
2019-01-25T04:54:46.444Z,-0.30
2019-01-25T04:57:17.017Z,-0.40
2019-01-25T04:59:47.881Z,-0.40
2019-01-25T05:02:18.351Z,-0.20
2019-01-25T05:04:49.264Z,-0.10
2019-01-25T05:07:19.448Z,-0.10
2019-01-25T05:09:53.268Z,-0.10
2019-01-25T05:12:25.020Z,0.00
2019-01-25T05:14:54.985Z,0.00
2019-01-25T05:17:28.958Z,0.00
2019-01-25T05:20:04.042Z,0.00
2019-01-25T05:22:37.457Z,0.00
2019-01-25T05:25:09.575Z,0.00
2019-01-25T05:27:39.600Z,0.00
2019-01-25T05:30:11.763Z,0.00
2019-01-25T05:32:43.541Z,0.00
2019-01-25T05:35:14.285Z,0.00
2019-01-25T05:37:44.442Z,0.10
2019-01-25T05:40:25.327Z,0.10
2019-01-25T05:42:57.303Z,0.10
2019-01-25T05:45:27.915Z,0.10
2019-01-25T05:47:57.957Z,0.00
2019-01-25T05:50:30.726Z,-0.10
2019-01-25T05:53:00.930Z,-0.10
2019-01-25T05:55:32.084Z,-0.10
2019-01-25T05:58:03.306Z,-0.10
2019-01-25T06:00:39.794Z,-0.10
2019-01-25T06:03:11.857Z,-0.20
2019-01-25T06:05:42.947Z,-0.10
2019-01-25T06:08:43.580Z,-0.10
2019-01-25T06:11:14.888Z,0.00
2019-01-25T06:13:46.537Z,0.00
2019-01-25T06:16:17.299Z,0.10
2019-01-25T06:18:48.207Z,0.10
2019-01-25T06:21:20.106Z,0.10
2019-01-25T06:23:53.967Z,0.10
2019-01-25T06:26:26.388Z,0.00
2019-01-25T06:28:56.647Z,0.00
2019-01-25T06:31:29.624Z,0.00
2019-01-25T06:34:04.219Z,-0.10
2019-01-25T06:36:34.608Z,-0.10
2019-01-25T06:39:07.851Z,0.00
2019-01-25T06:41:44.038Z,0.20
2019-01-25T06:44:09.892Z,0.20
2019-01-25T06:46:40.179Z,0.20
2019-01-25T06:49:10.364Z,0.20
2019-01-25T06:51:42.363Z,0.20
2019-01-25T06:54:12.877Z,0.10
2019-01-25T06:56:43.443Z,0.10
2019-01-25T06:59:23.345Z,0.20
2019-01-25T07:01:57.123Z,0.00
2019-01-25T07:04:27.656Z,-0.10
2019-01-25T07:06:58.103Z,0.00
2019-01-25T07:09:32.302Z,0.20
2019-01-25T07:12:02.770Z,0.10
2019-01-25T07:14:33.494Z,0.30
2019-01-25T07:17:04.152Z,0.20
2019-01-25T07:19:36.062Z,0.20
2019-01-25T07:22:07.178Z,0.20
2019-01-25T07:24:38.856Z,0.10
2019-01-25T07:27:09.932Z,0.10
2019-01-25T07:29:40.176Z,0.10
2019-01-25T07:32:10.531Z,0.10
2019-01-25T07:34:40.783Z,0.00
2019-01-25T07:37:11.216Z,0.00
2019-01-25T07:39:46.618Z,0.00
2019-01-25T07:42:17.072Z,0.10
2019-01-25T07:44:47.512Z,0.20
2019-01-25T07:47:17.862Z,0.20
2019-01-25T07:49:50.626Z,0.20
2019-01-25T07:52:21.076Z,0.20
2019-01-25T07:54:54.434Z,0.20
2019-01-25T07:57:24.577Z,0.20
2019-01-25T07:59:54.806Z,0.30
2019-01-25T08:02:25.424Z,0.30
2019-01-25T08:04:58.886Z,0.30
2019-01-25T08:07:34.160Z,0.40
2019-01-25T08:10:12.573Z,0.50
2019-01-25T08:12:42.773Z,0.60
2019-01-25T08:15:15.547Z,0.70
2019-01-25T08:17:45.772Z,0.60
2019-01-25T08:20:16.963Z,0.50
2019-01-25T08:22:47.375Z,0.30
2019-01-25T08:25:19.426Z,0.40
2019-01-25T08:27:51.295Z,0.40
2019-01-25T08:30:21.867Z,0.40
2019-01-25T08:32:52.671Z,0.60
2019-01-25T08:35:25.653Z,0.70
2019-01-25T08:37:56.225Z,0.80
2019-01-25T08:40:26.610Z,0.90
2019-01-25T08:43:05.983Z,0.90
2019-01-25T08:45:37.117Z,0.90
2019-01-25T08:48:08.956Z,0.80
2019-01-25T08:50:39.340Z,0.70
2019-01-25T08:53:11.753Z,0.60
2019-01-25T08:55:42.121Z,0.50
2019-01-25T08:58:12.763Z,0.50
2019-01-25T09:00:43.326Z,0.60
2019-01-25T09:03:13.813Z,0.60
2019-01-25T09:05:50.020Z,0.50
2019-01-25T09:08:22.295Z,0.60
2019-01-25T09:10:55.952Z,0.80
2019-01-25T09:13:26.568Z,0.80
2019-01-25T09:15:58.184Z,0.90
2019-01-25T09:18:28.682Z,1.00
2019-01-25T09:21:09.830Z,1.10
2019-01-25T09:23:45.795Z,1.30
2019-01-25T09:26:19.808Z,1.30
2019-01-25T09:28:59.870Z,1.20
2019-01-25T09:31:30.374Z,1.20
2019-01-25T09:34:00.957Z,1.10
2019-01-25T09:36:34.736Z,1.10
2019-01-25T09:39:11.130Z,1.20
2019-01-25T09:41:43.518Z,1.10
2019-01-25T09:44:23.051Z,1.20
2019-01-25T09:46:53.521Z,1.20
2019-01-25T09:49:23.965Z,1.30
2019-01-25T09:51:58.512Z,1.40
2019-01-25T09:54:31.984Z,1.50
2019-01-25T09:57:07.857Z,1.50
2019-01-25T09:59:38.751Z,1.50
2019-01-25T10:02:12.324Z,1.40
2019-01-25T10:04:43.222Z,1.50
2019-01-25T10:07:18.289Z,1.60
2019-01-25T10:09:51.215Z,1.60
2019-01-25T10:12:21.464Z,1.50
2019-01-25T10:14:52.408Z,1.60
2019-01-25T10:17:27.015Z,1.80
2019-01-25T10:20:04.973Z,2.00
2019-01-25T10:22:36.911Z,2.10
2019-01-25T10:25:15.205Z,2.10
2019-01-25T10:27:52.649Z,2.30
2019-01-25T10:30:30.247Z,2.30
2019-01-25T10:33:14.261Z,2.40
2019-01-25T10:36:04.580Z,2.20
2019-01-25T10:38:45.999Z,2.20
2019-01-25T10:41:29.768Z,2.20
2019-01-25T10:44:05.827Z,2.20
2019-01-25T10:46:36.749Z,2.20
2019-01-25T10:49:07.390Z,2.10
2019-01-25T10:51:40.804Z,2.10
2019-01-25T10:54:13.218Z,2.20
2019-01-25T10:56:44.393Z,2.20
2019-01-25T10:59:14.564Z,2.10
2019-01-25T11:01:49.560Z,2.10
2019-01-25T11:04:24.698Z,2.20
2019-01-25T11:06:57.926Z,2.20
2019-01-25T11:09:32.195Z,2.20
2019-01-25T11:12:02.746Z,2.10
2019-01-25T11:14:34.047Z,2.20
2019-01-25T11:17:10.507Z,2.10
2019-01-25T11:19:43.070Z,2.20
2019-01-25T11:22:16.075Z,2.20
2019-01-25T11:24:48.418Z,2.30
2019-01-25T11:27:22.043Z,2.40
2019-01-25T11:29:55.221Z,2.70
2019-01-25T11:32:28.354Z,2.70
2019-01-25T11:35:04.936Z,2.90
2019-01-25T11:37:43.373Z,3.00
2019-01-25T11:40:58.607Z,3.10
2019-01-25T11:43:49.744Z,3.20
2019-01-25T11:46:28.255Z,3.30
2019-01-25T11:48:59.953Z,3.40
2019-01-25T11:51:36.040Z,3.40
2019-01-25T11:54:09.176Z,3.50
2019-01-25T11:56:42.771Z,3.60
2019-01-25T11:59:13.465Z,3.90
2019-01-25T12:01:47.703Z,4.00
2019-01-25T12:04:18.273Z,4.00
2019-01-25T12:06:51.589Z,4.20
2019-01-25T12:09:24.272Z,4.40
2019-01-25T12:11:58.685Z,4.50
2019-01-25T12:14:29.171Z,4.30
2019-01-25T12:17:02.518Z,4.50
2019-01-25T12:19:32.970Z,4.40
2019-01-25T12:22:10.027Z,4.60
2019-01-25T12:24:47.414Z,4.70
2019-01-25T12:27:18.840Z,4.70
2019-01-25T12:29:55.593Z,4.90
2019-01-25T12:32:38.849Z,5.10
2019-01-25T12:35:17.853Z,5.20
2019-01-25T12:37:48.498Z,5.60
2019-01-25T12:40:22.786Z,5.70
2019-01-25T12:42:57.924Z,5.50
2019-01-25T12:45:29.180Z,5.60
2019-01-25T12:48:02.618Z,5.40
2019-01-25T12:50:58.125Z,5.30
2019-01-25T12:53:30.514Z,5.50
2019-01-25T12:56:06.029Z,5.70
2019-01-25T12:58:44.760Z,5.70
2019-01-25T13:01:18.002Z,5.40
2019-01-25T13:03:50.735Z,5.30
2019-01-25T13:06:24.906Z,5.10
2019-01-25T13:09:00.514Z,5.10
2019-01-25T13:11:33.753Z,5.00
2019-01-25T13:14:13.953Z,5.20
2019-01-25T13:16:50.712Z,5.10
2019-01-25T13:19:27.772Z,5.20
2019-01-25T13:22:11.837Z,5.10
2019-01-25T13:24:48.629Z,5.30
2019-01-25T13:27:21.693Z,5.10
2019-01-25T13:29:57.970Z,5.20
2019-01-25T13:32:36.932Z,5.30
2019-01-25T13:35:12.187Z,5.30
2019-01-25T13:37:48.404Z,5.30
2019-01-25T13:40:26.710Z,5.30
2019-01-25T13:43:03.078Z,5.30
2019-01-25T13:45:39.012Z,5.50
2019-01-25T13:48:15.059Z,5.40
2019-01-25T13:51:06.255Z,5.50
2019-01-25T13:54:00.660Z,5.60
2019-01-25T13:56:34.315Z,5.70
2019-01-25T13:59:13.128Z,5.50
2019-01-25T14:02:06.599Z,5.60
2019-01-25T14:04:42.321Z,5.50
2019-01-25T14:07:20.934Z,5.50
2019-01-25T14:09:55.580Z,5.60
2019-01-25T14:12:33.416Z,5.50
2019-01-25T14:15:05.843Z,5.40
2019-01-25T14:17:39.955Z,5.20
2019-01-25T14:20:28.334Z,5.20
2019-01-25T14:23:03.924Z,5.30
2019-01-25T14:25:43.990Z,5.30
2019-01-25T14:28:17.006Z,5.20
2019-01-25T14:30:49.887Z,5.20
2019-01-25T14:33:26.209Z,5.10
2019-01-25T14:36:02.319Z,5.20
2019-01-25T14:38:37.903Z,5.30
2019-01-25T14:41:18.623Z,5.30
2019-01-25T14:43:54.686Z,5.20
2019-01-25T14:46:26.187Z,5.30
2019-01-25T14:49:02.189Z,5.20
2019-01-25T14:51:35.240Z,5.10
2019-01-25T14:54:10.241Z,5.00
2019-01-25T14:56:42.458Z,5.00
2019-01-25T14:59:23.975Z,4.90
2019-01-25T15:01:58.240Z,4.90
2019-01-25T15:04:41.914Z,4.90
2019-01-25T15:07:19.563Z,4.80
2019-01-25T15:09:58.677Z,5.00
2019-01-25T15:12:32.391Z,4.90
2019-01-25T15:15:25.812Z,4.90
2019-01-25T15:17:58.508Z,4.90
2019-01-25T15:20:36.268Z,4.80
2019-01-25T15:23:10.838Z,4.80
2019-01-25T15:25:43.292Z,4.80
2019-01-25T15:28:21.500Z,4.70
2019-01-25T15:31:14.951Z,4.70
2019-01-25T15:33:58.886Z,4.80
2019-01-25T15:36:32.279Z,4.70
2019-01-25T15:39:17.965Z,4.70
2019-01-25T15:41:52.545Z,4.70
2019-01-25T15:44:23.524Z,4.60
2019-01-25T15:46:56.355Z,4.70
2019-01-25T15:49:27.457Z,4.60
2019-01-25T15:52:12.319Z,4.70
2019-01-25T15:54:52.691Z,4.80
2019-01-25T15:57:33.257Z,4.80
2019-01-25T16:00:08.346Z,4.80
2019-01-25T16:02:43.346Z,4.80
2019-01-25T16:05:17.316Z,4.70
2019-01-25T16:07:57.075Z,4.70
2019-01-25T16:10:37.734Z,4.70
2019-01-25T16:13:14.968Z,4.60
2019-01-25T16:16:01.303Z,4.60
2019-01-25T16:18:43.598Z,4.60
2019-01-25T16:21:21.160Z,4.60
2019-01-25T16:23:59.176Z,4.60
2019-01-25T16:26:35.662Z,4.70
2019-01-25T16:29:22.140Z,4.80
2019-01-25T16:32:02.382Z,4.80
2019-01-25T16:34:38.671Z,4.70
2019-01-25T16:37:12.377Z,4.60
2019-01-25T16:39:47.013Z,4.50
2019-01-25T16:42:25.307Z,4.50
2019-01-25T16:45:02.204Z,4.50
2019-01-25T16:47:34.281Z,4.30
2019-01-25T16:50:09.832Z,4.20
2019-01-25T16:52:46.433Z,4.10
2019-01-25T16:55:25.253Z,4.00
2019-01-25T16:58:09.151Z,3.90
2019-01-25T17:00:51.510Z,3.90
2019-01-25T17:03:23.094Z,3.80
2019-01-25T17:05:54.096Z,3.70
2019-01-25T17:08:32.842Z,3.60
2019-01-25T17:11:03.966Z,3.50
2019-01-25T17:13:40.287Z,3.50
2019-01-25T17:16:12.873Z,3.60
2019-01-25T17:18:46.009Z,3.60
2019-01-25T17:21:21.595Z,3.70
2019-01-25T17:23:53.954Z,3.70
2019-01-25T17:26:26.466Z,3.60
2019-01-25T17:28:57.819Z,3.40
2019-01-25T17:31:31.410Z,3.60
2019-01-25T17:34:02.913Z,3.40
2019-01-25T17:36:39.255Z,3.40
2019-01-25T17:39:19.676Z,3.40
2019-01-25T17:41:57.150Z,3.40
2019-01-25T17:44:42.626Z,3.30
2019-01-25T17:47:32.929Z,3.40
2019-01-25T17:50:10.149Z,3.40
2019-01-25T17:52:46.272Z,3.40
2019-01-25T17:55:17.669Z,3.40
2019-01-25T17:58:08.008Z,3.40
2019-01-25T18:01:01.115Z,3.30
2019-01-25T18:03:37.898Z,3.30
2019-01-25T18:06:13.650Z,3.30
2019-01-25T18:08:52.814Z,3.30
2019-01-25T18:11:36.340Z,3.40
2019-01-25T18:14:08.595Z,3.60
2019-01-25T18:16:42.838Z,3.70
2019-01-25T18:19:19.660Z,3.70
2019-01-25T18:21:54.335Z,3.80
2019-01-25T18:24:44.090Z,3.70
2019-01-25T18:27:32.693Z,3.60
2019-01-25T18:30:15.901Z,3.60
2019-01-25T18:32:55.997Z,3.70
2019-01-25T18:35:39.398Z,3.70
2019-01-25T18:38:21.829Z,3.70
2019-01-25T18:41:01.780Z,3.80
2019-01-25T18:43:35.837Z,3.70
2019-01-25T18:46:20.885Z,3.70
2019-01-25T18:48:57.496Z,3.80
2019-01-25T18:51:32.659Z,3.80
2019-01-25T18:54:08.006Z,3.80
2019-01-25T18:56:46.787Z,3.80
2019-01-25T18:59:35.364Z,3.90
2019-01-25T19:02:13.221Z,3.90
2019-01-25T19:04:52.544Z,3.80
2019-01-25T19:07:54.294Z,3.90
2019-01-25T19:11:00.839Z,3.90
2019-01-25T19:13:43.253Z,3.90
2019-01-25T19:19:23.206Z,3.70
2019-01-25T19:21:57.266Z,3.70
2019-01-25T19:24:32.595Z,3.60
2019-01-25T19:27:08.274Z,3.50
2019-01-25T19:29:55.090Z,3.50
2019-01-25T19:32:33.764Z,3.50
2019-01-25T19:35:11.624Z,3.40
2019-01-25T19:37:51.308Z,3.40
2019-01-25T19:40:37.546Z,3.50
2019-01-25T19:43:13.713Z,3.40
2019-01-25T19:45:51.566Z,3.30
2019-01-25T19:48:28.668Z,3.30
2019-01-25T19:51:09.520Z,3.30
2019-01-25T19:53:45.599Z,3.30
2019-01-25T19:56:23.599Z,3.20
2019-01-25T19:59:05.372Z,3.10
2019-01-25T20:01:45.802Z,3.10
2019-01-25T20:04:25.539Z,3.10
2019-01-25T20:07:03.071Z,3.00
2019-01-25T20:09:45.716Z,3.00
2019-01-25T20:12:33.502Z,3.00
2019-01-25T20:15:26.149Z,3.00
2019-01-25T20:18:03.565Z,3.00
2019-01-25T20:20:40.196Z,3.00
2019-01-25T20:23:18.903Z,3.10
2019-01-25T20:26:07.032Z,3.10
2019-01-25T20:28:50.054Z,3.10
2019-01-25T20:31:34.122Z,3.10
2019-01-25T20:34:11.340Z,3.10
2019-01-25T20:37:12.520Z,3.00
2019-01-25T20:40:05.292Z,3.00
2019-01-25T20:42:54.720Z,3.00
2019-01-25T20:45:42.190Z,3.00
2019-01-25T20:48:28.988Z,3.00
2019-01-25T20:51:06.326Z,2.90
2019-01-25T20:53:44.098Z,2.80
2019-01-25T20:56:20.401Z,2.80
2019-01-25T20:59:01.992Z,2.80
2019-01-25T21:01:49.585Z,2.80
2019-01-25T21:04:33.560Z,2.80
2019-01-25T21:07:15.501Z,2.90
2019-01-25T21:10:16.978Z,3.00
2019-01-25T21:13:00.948Z,3.00
2019-01-25T21:15:39.718Z,3.10
2019-01-25T21:18:27.680Z,3.10
2019-01-25T21:21:02.338Z,3.20
2019-01-25T21:23:40.387Z,3.20
2019-01-25T21:26:15.441Z,3.30
2019-01-25T21:28:52.842Z,3.20
2019-01-25T21:31:25.042Z,3.20
2019-01-25T21:33:58.296Z,3.20
2019-01-25T21:36:33.482Z,3.30
2019-01-25T21:39:11.335Z,3.30
2019-01-25T21:41:52.275Z,3.20
2019-01-25T21:44:25.547Z,3.20
2019-01-25T21:46:58.148Z,3.30
2019-01-25T21:49:33.096Z,3.30
2019-01-25T21:52:15.922Z,3.30
2019-01-25T21:54:52.711Z,3.30
2019-01-25T21:57:28.335Z,3.30
2019-01-25T22:00:10.449Z,3.30
2019-01-25T22:02:51.774Z,3.40
2019-01-25T22:05:33.844Z,3.50
2019-01-25T22:08:06.558Z,3.50
2019-01-25T22:10:52.101Z,3.50
2019-01-25T22:13:25.969Z,3.50
2019-01-25T22:16:00.625Z,3.50
2019-01-25T22:18:40.266Z,3.60
2019-01-25T22:21:18.708Z,3.60
2019-01-25T22:23:53.509Z,3.60
2019-01-25T22:26:24.968Z,3.70
2019-01-25T22:28:58.512Z,3.70
2019-01-25T22:31:40.239Z,3.60
2019-01-25T22:34:14.403Z,3.60
2019-01-25T22:36:46.621Z,3.60
2019-01-25T22:39:24.785Z,3.60
2019-01-25T22:41:57.104Z,3.60
2019-01-25T22:44:32.848Z,3.60
2019-01-25T22:47:06.034Z,3.60
2019-01-25T22:49:46.917Z,3.60
2019-01-25T22:52:18.342Z,3.50
2019-01-25T22:54:58.750Z,3.50
2019-01-25T22:57:27.509Z,3.60
2019-01-25T23:00:09.731Z,3.50
2019-01-25T23:02:45.884Z,3.60
2019-01-25T23:05:44.510Z,3.60
2019-01-25T23:08:26.294Z,3.60
2019-01-25T23:11:07.420Z,3.70
2019-01-25T23:13:38.807Z,3.70
2019-01-25T23:16:17.925Z,3.80
2019-01-25T23:18:49.932Z,3.80
2019-01-25T23:21:28.835Z,3.80
2019-01-25T23:24:07.280Z,3.80
2019-01-25T23:26:50.517Z,4.00
2019-01-25T23:29:27.195Z,4.30
2019-01-25T23:32:25.984Z,4.40
2019-01-25T23:35:02.963Z,4.50
2019-01-25T23:37:34.022Z,4.60
2019-01-25T23:40:06.840Z,4.70
2019-01-25T23:42:38.516Z,4.80
2019-01-25T23:45:13.401Z,4.90
2019-01-25T23:47:57.276Z,4.90
2019-01-25T23:50:27.999Z,4.90
2019-01-25T23:53:02.876Z,5.10
2019-01-25T23:55:33.706Z,5.10
2019-01-25T23:58:06.459Z,5.10
